Time;durP1;ratioP1;P1;durP2;ratioP2;P2;SDS_P1;SDS_P2;PMS_P1;PMS_P2;Temp;Humidity;BMP_temperature;BMP_pressure;BME280_temperature;BME280_humidity;BME280_pressure;Samples;Min_cycle;Max_cycle;Signal;HPM_P1;HPM_P2
2022/12/03 00:02:32;;;;;;;1.92;1.38;;;;;;;-147.53;100.00;57128.34;10292622;28;20523;-83
2022/12/03 00:07:34;;;;;;;3.15;2.70;;;;;;;-147.53;100.00;57128.34;10286793;28;20042;-83
2022/12/03 00:12:35;;;;;;;2.22;1.48;;;;;;;-147.53;100.00;57128.34;10302976;28;20053;-83
2022/12/03 00:17:37;;;;;;;1.83;1.10;;;;;;;-147.53;100.00;57128.34;10302730;28;20090;-83
2022/12/03 00:22:38;;;;;;;2.58;1.85;;;;;;;-147.53;100.00;57128.34;10300782;28;20042;-83
2022/12/03 00:27:40;;;;;;;1.00;0.75;;;;;;;-147.53;100.00;57128.34;10292928;28;20046;-84
2022/12/03 00:32:42;;;;;;;4.05;1.95;;;;;;;-147.53;100.00;57128.34;10293128;28;20078;-84
2022/12/03 00:37:43;;;;;;;3.40;1.95;;;;;;;-147.53;100.00;57128.34;10292295;28;20065;-83
2022/12/03 00:42:45;;;;;;;5.28;3.00;;;;;;;-147.53;100.00;57128.34;10275765;28;20776;-83
2022/12/03 00:47:46;;;;;;;2.85;1.52;;;;;;;-147.53;100.00;57128.34;10283770;28;20089;-83
2022/12/03 00:52:48;;;;;;;3.08;1.27;;;;;;;-147.53;100.00;57128.34;10300993;28;20035;-83
2022/12/03 00:57:50;;;;;;;1.75;1.48;;;;;;;-147.53;100.00;57128.34;10298963;28;20051;-84
2022/12/03 01:02:51;;;;;;;2.90;2.13;;;;;;;-147.53;100.00;57128.34;10299793;28;20397;-83
2022/12/03 01:07:53;;;;;;;3.45;2.25;;;;;;;-147.53;100.00;57128.34;10299406;28;20074;-84
2022/12/03 01:12:54;;;;;;;3.67;2.38;;;;;;;-147.53;100.00;57128.34;10301772;28;20732;-83
2022/12/03 01:17:56;;;;;;;3.20;2.28;;;;;;;-147.53;100.00;57128.34;10298800;28;20583;-84
2022/12/03 01:22:57;;;;;;;3.40;2.30;;;;;;;-147.53;100.00;57128.34;10297517;28;20047;-84
2022/12/03 01:27:59;;;;;;;3.88;2.08;;;;;;;-147.53;100.00;57128.34;10304797;28;20116;-82
2022/12/03 01:33:00;;;;;;;6.43;2.88;;;;;;;-147.53;100.00;57128.34;10312105;28;20034;-84
2022/12/03 01:38:02;;;;;;;6.00;3.13;;;;;;;-147.53;100.00;57128.34;10310310;28;20062;-83
2022/12/03 01:43:03;;;;;;;2.90;1.65;;;;;;;-147.53;100.00;57128.34;10309605;28;20035;-83
2022/12/03 01:48:05;;;;;;;11.38;4.68;;;;;;;-147.53;100.00;57128.34;10308415;28;20516;-84
2022/12/03 01:53:10;;;;;;;5.57;3.22;;;;;;;-147.53;100.00;57128.34;10307068;28;20109;-83
2022/12/03 01:58:13;;;;;;;8.07;4.78;;;;;;;-147.53;100.00;57128.34;10309378;28;20074;-83
2022/12/03 02:03:21;;;;;;;5.45;4.07;;;;;;;-147.53;100.00;57128.34;10312973;28;20086;-83
2022/12/03 02:08:32;;;;;;;7.65;3.53;;;;;;;-147.53;100.00;57128.34;10313964;28;20043;-83
2022/12/03 02:13:34;;;;;;;25.95;5.28;;;;;;;-147.53;100.00;57128.34;10316098;28;20038;-83
2022/12/03 02:18:35;;;;;;;5.25;3.50;;;;;;;-147.53;100.00;57128.34;10315930;28;20639;-83
2022/12/03 02:23:56;;;;;;;4.30;1.27;;;;;;;-147.53;100.00;57128.34;10316287;28;20086;-82
2022/12/03 02:28:57;;;;;;;3.58;2.40;;;;;;;-147.53;100.00;57128.34;10315776;28;20042;-84
2022/12/03 02:34:05;;;;;;;3.38;2.28;;;;;;;-147.53;100.00;57128.34;10316829;28;20039;-82
2022/12/03 02:39:06;;;;;;;3.17;2.45;;;;;;;-147.53;100.00;57128.34;10317054;28;20146;-82
2022/12/03 02:44:08;;;;;;;1.90;1.67;;;;;;;-147.53;100.00;57128.34;10315805;28;20066;-84
2022/12/03 02:49:10;;;;;;;2.47;1.15;;;;;;;-147.53;100.00;57128.34;10316973;28;20066;-83
2022/12/03 02:54:12;;;;;;;2.92;1.92;;;;;;;-147.53;100.00;57128.34;10307135;28;20089;-83
2022/12/03 02:59:13;;;;;;;3.42;1.98;;;;;;;-147.53;100.00;57128.34;10289030;28;20039;-83
2022/12/03 03:04:15;;;;;;;5.90;3.05;;;;;;;-147.53;100.00;57128.34;10305644;28;20512;-82
2022/12/03 03:09:17;;;;;;;3.42;2.08;;;;;;;-147.53;100.00;57128.34;10306231;28;20043;-83
2022/12/03 03:14:19;;;;;;;2.60;2.22;;;;;;;-147.53;100.00;57128.34;10289516;28;20042;-83
2022/12/03 03:19:23;;;;;;;3.50;1.98;;;;;;;-147.53;100.00;57128.34;10288829;28;20497;-82
2022/12/03 03:24:25;;;;;;;1.23;1.13;;;;;;;-147.53;100.00;57128.34;10304615;28;20508;-83
2022/12/03 03:29:27;;;;;;;1.42;1.33;;;;;;;-147.53;100.00;57128.34;10305694;28;20501;-83
2022/12/03 03:34:31;;;;;;;4.03;2.58;;;;;;;-147.53;100.00;57128.34;10304766;28;20058;-83
2022/12/03 03:39:33;;;;;;;2.58;1.73;;;;;;;-147.53;100.00;57128.34;10304009;28;20097;-82
2022/12/03 03:44:36;;;;;;;5.93;3.05;;;;;;;-147.53;100.00;57128.34;10306820;28;20126;-83
2022/12/03 03:49:37;;;;;;;3.20;2.08;;;;;;;-147.53;100.00;57128.34;10290730;28;20591;-82
2022/12/03 03:54:39;;;;;;;3.10;2.33;;;;;;;-147.53;100.00;57128.34;10314991;28;20043;-82
2022/12/03 03:59:40;;;;;;;3.25;1.88;;;;;;;-147.53;100.00;57128.34;10303038;28;20083;-84
2022/12/03 04:04:42;;;;;;;3.08;2.33;;;;;;;-147.53;100.00;57128.34;10304184;28;20047;-83
2022/12/03 04:09:44;;;;;;;2.22;1.52;;;;;;;-147.53;100.00;57128.34;10305234;28;20054;-82
2022/12/03 04:14:45;;;;;;;4.63;2.30;;;;;;;-147.53;100.00;57128.34;10305090;28;20118;-84
2022/12/03 04:19:46;;;;;;;3.08;2.13;;;;;;;-147.53;100.00;57128.34;10309377;28;20070;-83
2022/12/03 04:24:48;;;;;;;2.13;1.55;;;;;;;-147.53;100.00;57128.34;10305340;28;20043;-83
2022/12/03 04:29:49;;;;;;;6.70;3.45;;;;;;;-147.53;100.00;57128.34;10312574;28;20101;-82
2022/12/03 04:45:32;;;;;;;4.60;2.83;;;;;;;-147.53;100.00;57128.34;10311004;28;20049;-82
2022/12/03 04:50:33;;;;;;;4.00;2.20;;;;;;;-147.53;100.00;57128.34;10311689;28;20050;-83
2022/12/03 04:55:35;;;;;;;5.43;2.00;;;;;;;-147.53;100.00;57128.34;10321512;28;20039;-82
2022/12/03 05:00:36;;;;;;;5.93;2.65;;;;;;;-147.53;100.00;57128.34;10312308;28;20050;-84
2022/12/03 05:05:38;;;;;;;1.05;0.95;;;;;;;-147.53;100.00;57128.34;10294714;28;20061;-82
2022/12/03 05:10:39;;;;;;;3.70;1.95;;;;;;;-147.53;100.00;57128.34;10312266;28;20062;-82
2022/12/03 05:15:40;;;;;;;3.92;1.98;;;;;;;-147.53;100.00;57128.34;10311954;28;20410;-83
2022/12/03 05:20:42;;;;;;;3.63;3.03;;;;;;;3.41;100.00;102574.78;10332953;28;20034;-82
2022/12/03 05:25:53;;;;;;;2.40;2.15;;;;;;;0.72;85.20;102367.78;10319119;28;20035;-82
2022/12/03 05:30:54;;;;;;;2.08;1.55;;;;;;;0.71;85.22;102368.56;10312215;28;20041;-82
2022/12/03 05:35:56;;;;;;;5.70;3.13;;;;;;;0.70;85.24;102371.91;10311938;28;20049;-83
2022/12/03 05:40:57;;;;;;;3.63;2.15;;;;;;;0.74;85.51;102370.50;10311397;28;20077;-82
2022/12/03 05:45:59;;;;;;;15.35;4.43;;;;;;;0.70;85.10;102364.19;10308946;28;20043;-82
2022/12/03 05:51:03;;;;;;;7.10;4.47;;;;;;;0.69;85.52;102367.53;10309864;28;20035;-82
2022/12/03 05:56:05;;;;;;;6.65;2.90;;;;;;;0.66;85.72;102362.13;10309853;28;20118;-82
2022/12/03 06:01:07;;;;;;;6.05;3.40;;;;;;;0.64;85.24;102355.94;10308803;28;20509;-81
2022/12/03 06:06:08;;;;;;;2.17;1.90;;;;;;;0.59;85.21;102358.16;10308228;28;20039;-82
2022/12/03 06:11:10;;;;;;;5.43;3.33;;;;;;;0.54;84.97;102354.28;10309679;28;20035;-84
2022/12/03 06:16:11;;;;;;;2.50;2.30;;;;;;;0.58;85.42;102358.03;10309620;28;20039;-83
2022/12/03 06:21:13;;;;;;;2.80;2.05;;;;;;;0.56;85.03;102344.13;10300586;28;20046;-83
2022/12/03 06:26:14;;;;;;;6.80;3.55;;;;;;;0.56;85.41;102349.28;10305923;28;20566;-84
2022/12/03 06:31:16;;;;;;;5.28;2.90;;;;;;;0.50;84.94;102347.97;10307370;28;20101;-84
2022/12/03 06:36:18;;;;;;;3.75;2.72;;;;;;;0.42;85.11;102346.44;10308498;28;20050;-82
2022/12/03 06:41:23;;;;;;;2.38;2.00;;;;;;;0.40;85.10;102349.66;10308163;28;20402;-84
2022/12/03 06:46:25;;;;;;;2.58;2.38;;;;;;;0.23;85.19;102348.28;10308181;28;20097;-82
2022/12/03 06:51:27;;;;;;;4.15;2.10;;;;;;;0.12;84.91;102356.00;10314467;28;20050;-83
2022/12/03 06:56:28;;;;;;;4.32;3.22;;;;;;;0.04;84.63;102354.44;10312719;28;20046;-83
2022/12/03 07:01:37;;;;;;;4.82;2.70;;;;;;;-0.04;84.83;102352.88;10316256;28;20046;-82
2022/12/03 07:06:38;;;;;;;3.88;2.67;;;;;;;-0.14;84.59;102356.34;10310611;28;20038;-82
2022/12/03 07:11:40;;;;;;;4.82;2.20;;;;;;;-0.21;84.93;102351.44;10309102;28;20073;-83
2022/12/03 07:16:42;;;;;;;3.42;2.90;;;;;;;-0.17;84.48;102350.94;10307681;28;20099;-84
2022/12/03 07:21:44;;;;;;;2.38;2.00;;;;;;;-0.22;84.73;102350.53;10310526;28;20031;-82
2022/12/03 07:26:45;;;;;;;5.72;2.65;;;;;;;-0.32;84.13;102363.38;10312371;28;20042;-82
2022/12/03 07:31:47;;;;;;;2.17;1.95;;;;;;;-0.34;84.54;102358.91;10315210;28;20096;-83
2022/12/03 07:36:49;;;;;;;3.17;2.50;;;;;;;-0.34;84.24;102361.47;10312049;28;20111;-82
2022/12/03 07:41:50;;;;;;;2.90;2.28;;;;;;;-0.36;84.16;102361.34;10295645;28;20587;-82
2022/12/03 07:46:53;;;;;;;2.17;1.50;;;;;;;-0.37;83.90;102360.41;10317689;28;20039;-81
2022/12/03 07:51:55;;;;;;;4.40;1.85;;;;;;;-0.39;84.00;102366.19;10307964;28;20035;-81
2022/12/03 07:56:57;;;;;;;5.45;3.70;;;;;;;-0.41;84.50;102360.00;10311305;28;20061;-81
2022/12/03 08:02:02;;;;;;;3.00;2.25;;;;;;;-0.41;83.99;102354.88;10303763;28;20097;-82
2022/12/03 08:07:04;;;;;;;2.03;1.83;;;;;;;-0.43;84.47;102351.28;10322827;28;20066;-80
2022/12/03 08:12:15;;;;;;;3.70;2.70;;;;;;;-0.40;84.41;102348.97;10314737;28;20038;-81
2022/12/03 08:17:18;;;;;;;9.23;5.85;;;;;;;-0.42;84.06;102347.91;10305005;28;20051;-82
2022/12/03 08:22:21;;;;;;;15.25;2.47;;;;;;;-0.42;84.35;102343.69;10307173;28;20094;-82
2022/12/03 08:27:22;;;;;;;2.35;2.15;;;;;;;-0.34;84.86;102336.63;10303449;28;20066;-84
2022/12/03 08:32:24;;;;;;;2.40;1.88;;;;;;;-0.27;84.58;102333.81;10302904;28;20043;-83
2022/12/03 08:37:25;;;;;;;1.77;1.67;;;;;;;-0.23;84.38;102332.38;10307309;28;20066;-82
2022/12/03 08:42:41;;;;;;;5.93;3.33;;;;;;;-0.17;84.18;102324.28;10310541;28;20035;-83
2022/12/03 08:47:42;;;;;;;3.00;1.90;;;;;;;-0.06;84.25;102339.88;10316356;28;20054;-84
2022/12/03 08:52:44;;;;;;;4.22;3.13;;;;;;;0.07;84.35;102346.06;10313718;28;20370;-81
2022/12/03 08:57:45;;;;;;;2.88;1.98;;;;;;;0.03;83.93;102354.28;10309175;28;20093;-83
2022/12/03 09:02:50;;;;;;;6.43;3.90;;;;;;;-0.05;83.73;102346.81;10295499;28;20038;-83
2022/12/03 09:07:52;;;;;;;4.88;2.15;;;;;;;0.10;83.45;102336.91;10325733;28;20098;-83
2022/12/03 09:12:53;;;;;;;5.32;2.55;;;;;;;0.27;83.66;102332.28;10300045;28;20054;-83
2022/12/03 09:17:55;;;;;;;4.38;3.10;;;;;;;0.45;83.52;102325.16;10310247;28;20456;-83
2022/12/03 09:22:56;;;;;;;6.55;3.10;;;;;;;0.48;83.16;102334.06;10308712;28;20094;-82
2022/12/03 09:27:57;;;;;;;2.50;2.08;;;;;;;0.64;82.53;102325.00;10324120;28;20046;-83
2022/12/03 09:32:59;;;;;;;6.75;3.42;;;;;;;0.81;82.26;102316.97;10306657;28;20047;-83
2022/12/03 09:38:00;;;;;;;4.72;2.35;;;;;;;0.85;81.85;102319.00;10309865;28;20133;-82
2022/12/03 09:43:02;;;;;;;3.45;2.67;;;;;;;0.85;81.47;102329.31;10316932;28;20054;-83
2022/12/03 09:48:04;;;;;;;3.95;2.00;;;;;;;0.87;81.66;102321.72;10311618;28;20038;-83
2022/12/03 09:53:07;;;;;;;3.03;2.28;;;;;;;0.82;81.03;102320.44;10310573;28;20074;-82
2022/12/03 09:58:11;;;;;;;3.40;1.95;;;;;;;0.81;81.06;102314.41;10317543;28;20050;-84
2022/12/03 10:03:15;;;;;;;6.82;3.42;;;;;;;0.77;80.98;102309.75;10313469;28;20101;-82
2022/12/03 10:08:20;;;;;;;2.35;2.15;;;;;;;0.77;80.37;102308.88;10316452;28;20050;-84
2022/12/03 10:13:28;;;;;;;6.40;4.30;;;;;;;0.64;80.55;102312.13;10322705;28;20078;-82
2022/12/03 10:18:33;;;;;;;5.03;3.75;;;;;;;0.59;80.46;102305.69;10324004;28;20034;-83
2022/12/03 10:23:42;;;;;;;3.97;2.55;;;;;;;0.63;80.38;102298.34;10325038;28;20231;-84
2022/12/03 10:28:45;;;;;;;3.50;2.42;;;;;;;0.69;80.40;102285.03;10318877;28;20043;-84
2022/12/03 10:33:56;;;;;;;5.97;3.80;;;;;;;0.66;80.49;102297.66;10322872;28;20049;-83
2022/12/03 10:39:11;;;;;;;7.68;4.38;;;;;;;0.68;80.33;102293.56;10333243;28;20066;-84
2022/12/03 10:44:19;;;;;;;4.00;2.90;;;;;;;0.72;80.44;102285.25;10310289;28;20054;-84
2022/12/03 10:49:20;;;;;;;3.75;2.80;;;;;;;0.78;79.94;102280.63;10329955;28;20039;-81
2022/12/03 10:54:25;;;;;;;4.30;3.20;;;;;;;0.74;80.03;102268.25;10324633;28;20047;-82
2022/12/03 10:59:32;;;;;;;3.78;2.47;;;;;;;0.73;80.03;102274.19;10321131;28;20081;-83
2022/12/03 11:04:35;;;;;;;2.92;1.98;;;;;;;0.67;79.62;102269.44;10317095;28;20098;-81
2022/12/03 11:09:36;;;;;;;2.83;1.98;;;;;;;0.67;79.53;102266.84;10316312;28;20433;-82
2022/12/03 11:14:53;;;;;;;3.15;2.53;;;;;;;0.69;79.55;102252.44;10317797;28;20595;-82
2022/12/03 11:19:55;;;;;;;3.83;2.25;;;;;;;0.70;79.41;102255.88;10301528;28;20035;-83
2022/12/03 11:25:25;;;;;;;7.45;3.35;;;;;;;0.81;79.57;102249.00;10322375;28;20043;-82
2022/12/03 11:30:49;;;;;;;3.10;1.87;;;;;;;1.01;79.59;102242.88;10303128;28;20051;-82
2022/12/03 11:36:02;;;;;;;1.77;1.67;;;;;;;0.83;79.15;102238.03;10301616;28;20039;-83
2022/12/03 11:41:13;;;;;;;4.32;2.40;;;;;;;0.81;79.22;102239.63;10312081;28;20039;-83
2022/12/03 11:46:15;;;;;;;8.98;1.73;;;;;;;0.79;79.31;102241.16;10303774;28;20122;-83
2022/12/03 11:51:20;;;;;;;5.53;2.63;;;;;;;0.71;79.26;102221.59;10318949;28;20097;-81
2022/12/03 11:56:24;;;;;;;10.10;2.63;;;;;;;0.65;79.32;102222.00;10304262;28;20051;-83
2022/12/03 12:01:38;;;;;;;4.38;3.22;;;;;;;0.63;79.46;102210.69;10314005;28;20081;-83
2022/12/03 12:06:42;;;;;;;7.80;5.40;;;;;;;0.63;79.39;102197.78;10313687;28;20039;-83
2022/12/03 12:11:43;;;;;;;4.53;2.80;;;;;;;0.72;79.56;102192.44;10311869;28;20090;-80
2022/12/03 12:16:50;;;;;;;3.50;2.35;;;;;;;0.78;79.36;102179.16;10310238;28;20266;-80
2022/12/03 12:21:52;;;;;;;5.57;1.80;;;;;;;0.77;79.68;102183.41;10310518;28;20799;-81
2022/12/03 12:26:59;;;;;;;5.90;3.80;;;;;;;0.76;79.47;102176.44;10319286;28;20051;-81
2022/12/03 12:32:09;;;;;;;2.92;1.65;;;;;;;0.79;79.82;102171.53;10309070;28;20040;-81
2022/12/03 12:37:21;;;;;;;3.92;2.58;;;;;;;0.64;79.75;102162.59;10296990;28;20042;-80
2022/12/03 12:42:28;;;;;;;2.25;1.95;;;;;;;0.66;79.83;102174.84;10295241;28;20039;-80
2022/12/03 12:47:30;;;;;;;3.47;2.58;;;;;;;0.71;79.76;102157.16;10278023;28;20050;-80
2022/12/03 12:52:31;;;;;;;4.32;2.65;;;;;;;0.70;79.93;102157.91;10289750;28;20047;-81
2022/12/03 12:57:33;;;;;;;3.30;2.45;;;;;;;0.61;79.91;102157.19;10288536;28;20094;-80
2022/12/03 13:02:43;;;;;;;1.77;1.35;;;;;;;0.65;80.15;102151.50;10290987;28;20039;-80
2022/12/03 13:07:45;;;;;;;1.67;1.25;;;;;;;0.59;80.06;102148.44;10302968;28;20417;-80
2022/12/03 13:12:46;;;;;;;3.97;2.38;;;;;;;0.54;80.42;102145.47;10301328;28;20042;-80
2022/12/03 13:17:50;;;;;;;4.28;2.70;;;;;;;0.58;80.36;102137.22;10302699;28;20050;-81
2022/12/03 13:22:51;;;;;;;2.90;2.25;;;;;;;0.55;80.75;102141.25;10301264;28;20093;-81
2022/12/03 13:27:53;;;;;;;3.28;2.65;;;;;;;0.57;80.77;102126.78;10308810;28;20121;-80
2022/12/03 13:32:56;;;;;;;4.22;2.78;;;;;;;0.55;80.58;102125.78;10308013;28;20030;-80
2022/12/03 13:37:58;;;;;;;9.07;2.83;;;;;;;0.60;80.71;102125.38;10307916;28;20460;-80
2022/12/03 13:43:08;;;;;;;1.23;1.15;;;;;;;0.60;80.78;102119.28;10303427;28;20046;-80
2022/12/03 13:48:21;;;;;;;3.65;2.80;;;;;;;0.60;80.84;102120.22;10304932;28;20495;-81
2022/12/03 13:53:35;;;;;;;5.18;2.50;;;;;;;0.65;81.34;102112.84;10299637;28;20584;-81
2022/12/03 13:58:36;;;;;;;2.42;2.05;;;;;;;0.66;81.17;102104.31;10307466;28;20065;-81
2022/12/03 14:03:38;;;;;;;2.92;1.88;;;;;;;0.65;81.39;102103.41;10310678;28;20047;-80
2022/12/03 14:08:40;;;;;;;4.82;3.08;;;;;;;0.61;81.28;102100.47;10310158;28;20043;-81
2022/12/03 14:13:41;;;;;;;2.78;1.52;;;;;;;0.55;81.11;102111.19;10311313;28;20054;-80
2022/12/03 14:18:42;;;;;;;5.03;3.08;;;;;;;0.53;81.06;102099.88;10312294;28;20342;-80
2022/12/03 14:23:44;;;;;;;1.30;1.20;;;;;;;0.53;81.48;102103.34;10295719;28;20093;-80
2022/12/03 14:28:45;;;;;;;1.42;1.15;;;;;;;0.52;81.23;102096.38;10305503;28;20082;-81
2022/12/03 14:33:47;;;;;;;2.15;1.95;;;;;;;0.51;81.05;102104.91;10300995;28;20216;-81
2022/12/03 14:38:48;;;;;;;2.15;1.63;;;;;;;0.55;81.10;102107.75;10309046;28;20066;-80
2022/12/03 14:43:50;;;;;;;5.13;3.05;;;;;;;0.51;81.09;102099.75;10308860;28;20046;-79
2022/12/03 14:48:51;;;;;;;3.50;1.77;;;;;;;0.50;80.86;102103.09;10291066;28;20085;-81
2022/12/03 14:53:53;;;;;;;3.42;1.63;;;;;;;0.55;80.82;102100.00;10300605;28;20042;-82
2022/12/03 14:58:54;;;;;;;3.22;2.17;;;;;;;0.51;81.03;102097.19;10308388;28;20129;-80
2022/12/03 15:03:56;;;;;;;3.42;2.50;;;;;;;0.46;80.70;102101.06;10315380;28;20042;-80
2022/12/03 15:08:57;;;;;;;1.00;0.95;;;;;;;0.42;80.40;102098.13;10306983;28;20043;-81
2022/12/03 15:13:59;;;;;;;3.85;2.42;;;;;;;0.40;80.54;102100.56;10312661;28;20030;-81
2022/12/03 15:19:01;;;;;;;6.05;4.63;;;;;;;0.42;80.10;102087.81;10300879;28;20054;-82
2022/12/03 15:24:02;;;;;;;5.32;2.75;;;;;;;0.38;80.24;102081.53;10303297;28;20042;-80
2022/12/03 15:29:04;;;;;;;2.45;1.38;;;;;;;0.34;80.32;102084.63;10307100;28;20039;-82
2022/12/03 15:34:05;;;;;;;2.10;1.73;;;;;;;0.32;80.00;102089.66;10319875;28;20051;-82
2022/12/03 15:39:07;;;;;;;3.67;2.60;;;;;;;0.34;80.21;102082.06;10314020;28;20122;-81
2022/12/03 15:44:08;;;;;;;8.32;4.07;;;;;;;0.29;80.54;102080.81;10299854;28;20030;-80
2022/12/03 15:49:10;;;;;;;5.03;2.35;;;;;;;0.27;80.33;102074.63;10330654;28;20042;-82
2022/12/03 15:54:11;;;;;;;3.75;2.55;;;;;;;0.25;80.44;102068.47;10311039;28;20039;-80
2022/12/03 15:59:13;;;;;;;5.80;3.70;;;;;;;0.22;80.54;102078.53;10295079;28;20137;-81
2022/12/03 16:04:14;;;;;;;1.92;1.70;;;;;;;0.23;80.84;102065.75;10309921;28;20172;-80
2022/12/03 16:09:16;;;;;;;3.20;1.60;;;;;;;0.26;80.83;102067.69;10317426;28;20047;-80
2022/12/03 16:14:22;;;;;;;2.20;1.23;;;;;;;0.29;80.90;102073.06;10314280;28;20043;-79
2022/12/03 16:19:24;;;;;;;6.05;1.98;;;;;;;0.24;81.08;102071.78;10321697;28;20133;-81
2022/12/03 16:24:25;;;;;;;3.60;3.00;;;;;;;0.16;81.16;102079.81;10321527;28;20881;-80
2022/12/03 16:29:27;;;;;;;3.60;2.28;;;;;;;0.20;81.07;102080.09;10318472;28;20624;-80
2022/12/03 16:34:28;;;;;;;2.33;1.60;;;;;;;0.19;81.13;102083.44;10317672;28;20062;-80
2022/12/03 16:39:30;;;;;;;7.78;3.92;;;;;;;0.19;81.43;102081.75;10309055;28;20039;-81
2022/12/03 16:44:42;;;;;;;4.07;3.35;;;;;;;0.15;81.35;102087.41;10314108;28;20042;-80
2022/12/03 16:49:44;;;;;;;5.07;1.88;;;;;;;0.16;81.61;102073.78;10318939;28;20054;-81
2022/12/03 16:54:45;;;;;;;6.55;3.50;;;;;;;0.24;81.62;102074.38;10321995;28;20062;-79
2022/12/03 16:59:46;;;;;;;5.60;3.47;;;;;;;0.11;81.60;102075.97;10323313;28;20524;-80
2022/12/03 17:04:48;;;;;;;3.90;2.70;;;;;;;0.14;81.78;102075.34;10335525;28;20038;-80
2022/12/03 17:09:49;;;;;;;2.13;1.55;;;;;;;0.07;81.58;102073.03;10338466;28;21029;-80
2022/12/03 17:14:51;;;;;;;4.30;3.00;;;;;;;0.06;81.48;102069.56;10325054;28;20039;-80
2022/12/03 17:19:52;;;;;;;6.60;2.63;;;;;;;-0.02;81.81;102068.94;10323445;28;20047;-81
2022/12/03 17:24:54;;;;;;;7.68;1.92;;;;;;;-0.08;81.53;102083.00;10319327;28;20042;-80
2022/12/03 17:29:56;;;;;;;7.68;2.53;;;;;;;-0.21;81.24;102074.28;10323350;28;20134;-80
2022/12/03 17:34:57;;;;;;;3.15;2.80;;;;;;;-0.40;81.21;102074.47;10293236;28;20105;-81
2022/12/03 17:39:59;;;;;;;1.90;1.73;;;;;;;-0.44;81.62;102080.13;10293045;28;20039;-80
2022/12/03 17:45:02;;;;;;;3.78;2.90;;;;;;;-0.44;81.21;102063.78;10306656;28;20039;-81
2022/12/03 17:50:04;;;;;;;5.43;3.50;;;;;;;-0.53;81.62;102066.50;10308060;28;20058;-80
2022/12/03 17:55:06;;;;;;;4.25;3.67;;;;;;;-0.49;81.39;102066.00;10303485;28;20031;-81
2022/12/03 18:00:18;;;;;;;5.28;2.45;;;;;;;-0.45;81.54;102068.03;10306139;28;20043;-81
2022/12/03 18:05:21;;;;;;;2.03;1.50;;;;;;;-0.38;81.77;102059.13;10317733;28;20101;-80
2022/12/03 18:10:23;;;;;;;1.75;1.63;;;;;;;-0.34;81.82;102065.47;10308228;28;20074;-80
2022/12/03 18:15:24;;;;;;;4.57;2.65;;;;;;;-0.37;81.89;102072.13;10302471;28;20082;-79
2022/12/03 18:20:26;;;;;;;4.55;3.28;;;;;;;-0.37;81.93;102071.25;10310058;28;20600;-79
2022/12/03 18:25:28;;;;;;;8.10;3.85;;;;;;;-0.33;81.62;102063.00;10316670;28;20512;-81
2022/12/03 18:30:29;;;;;;;4.88;3.83;;;;;;;-0.33;82.00;102062.09;10310286;28;20073;-80
2022/12/03 18:35:31;;;;;;;4.35;3.05;;;;;;;-0.30;82.01;102065.84;10312358;28;20066;-81
2022/12/03 18:40:32;;;;;;;3.08;2.33;;;;;;;-0.33;81.93;102070.72;10312080;28;20055;-80
2022/12/03 18:45:34;;;;;;;1.88;1.33;;;;;;;-0.39;82.07;102065.06;10325323;28;20104;-81
2022/12/03 18:50:35;;;;;;;3.25;2.60;;;;;;;-0.37;82.35;102058.38;10312520;28;20046;-81
2022/12/03 18:55:37;;;;;;;3.15;2.80;;;;;;;-0.34;82.08;102061.19;10274135;28;20078;-80
2022/12/03 19:00:39;;;;;;;5.10;2.00;;;;;;;-0.33;82.09;102055.28;10307116;28;20046;-80
2022/12/03 19:05:41;;;;;;;4.47;2.38;;;;;;;-0.40;82.06;102050.41;10298959;28;20695;-80
2022/12/03 19:10:43;;;;;;;3.03;2.35;;;;;;;-0.45;82.60;102054.25;10299616;28;20501;-79
2022/12/03 19:15:47;;;;;;;8.30;3.72;;;;;;;-0.48;82.71;102059.16;10297640;28;20094;-79
2022/12/03 19:20:49;;;;;;;3.33;1.50;;;;;;;-0.43;82.69;102057.88;10301095;28;20094;-80
2022/12/03 19:25:59;;;;;;;4.65;3.50;;;;;;;-0.40;82.91;102052.97;10298641;28;20042;-79
2022/12/03 19:31:06;;;;;;;4.53;3.20;;;;;;;-0.40;82.75;102043.56;10298023;28;20621;-80
2022/12/03 19:36:19;;;;;;;7.38;3.58;;;;;;;-0.40;83.01;102053.88;10297967;28;20133;-80
2022/12/03 19:41:23;;;;;;;3.88;2.47;;;;;;;-0.40;83.14;102046.16;10299264;28;20742;-81
2022/12/03 19:46:29;;;;;;;4.30;3.83;;;;;;;-0.39;83.22;102055.69;10305373;28;20121;-79
2022/12/03 19:51:31;;;;;;;9.85;2.53;;;;;;;-0.42;83.29;102049.38;10299692;28;20047;-80
2022/12/03 19:56:36;;;;;;;3.45;2.53;;;;;;;-0.48;83.34;102051.44;10299117;28;20039;-81
2022/12/03 20:01:39;;;;;;;3.60;2.42;;;;;;;-0.44;83.61;102053.50;10299451;28;20046;-80
2022/12/03 20:06:41;;;;;;;2.80;2.30;;;;;;;-0.48;83.52;102060.06;10290040;28;20054;-81
2022/12/03 20:11:44;;;;;;;2.97;1.65;;;;;;;-0.49;83.88;102047.09;10300282;28;20043;-81
2022/12/03 20:16:46;;;;;;;1.98;1.55;;;;;;;-0.46;83.56;102058.53;10297444;28;20051;-79
2022/12/03 20:21:47;;;;;;;2.58;2.03;;;;;;;-0.48;83.60;102054.94;10295653;28;20079;-81
2022/12/03 20:26:49;;;;;;;3.97;3.17;;;;;;;-0.56;83.31;102046.56;10287312;28;20054;-79
2022/12/03 20:31:50;;;;;;;9.30;3.30;;;;;;;-0.60;83.17;102039.38;10280659;28;20071;-80
2022/12/03 20:36:52;;;;;;;3.15;2.85;;;;;;;-0.55;83.36;102035.50;10296161;28;20126;-80
2022/12/03 20:41:53;;;;;;;4.60;3.17;;;;;;;-0.49;83.24;102039.38;10295748;28;20128;-79
2022/12/03 20:46:55;;;;;;;1.85;1.35;;;;;;;-0.49;82.98;102040.25;10295624;28;20043;-80
2022/12/03 20:51:56;;;;;;;2.47;1.73;;;;;;;-0.49;83.06;102031.66;10306688;28;20043;-80
2022/12/03 20:57:04;;;;;;;3.60;2.58;;;;;;;-0.54;82.70;102036.41;10294514;28;20401;-80
2022/12/03 21:02:06;;;;;;;2.17;1.92;;;;;;;-0.57;82.98;102029.34;10308585;28;20070;-79
2022/12/03 21:07:07;;;;;;;3.47;2.42;;;;;;;-0.60;82.59;102021.38;10300098;28;20472;-80
2022/12/03 21:12:09;;;;;;;1.50;1.38;;;;;;;-0.64;82.84;102027.03;10307203;28;20072;-80
2022/12/03 21:17:10;;;;;;;2.97;2.65;;;;;;;-0.64;83.01;102042.47;10300514;28;20043;-80
2022/12/03 21:22:12;;;;;;;5.80;2.72;;;;;;;-0.64;83.18;102027.03;10305883;28;20035;-80
2022/12/03 21:27:13;;;;;;;1.40;1.30;;;;;;;-0.65;82.65;102030.38;10312643;28;20150;-80
2022/12/03 21:32:23;;;;;;;5.07;2.47;;;;;;;-0.64;82.72;102029.59;10311184;28;20118;-80
2022/12/03 21:37:24;;;;;;;4.95;3.35;;;;;;;-0.62;82.60;102035.75;10309554;28;20054;-79
2022/12/03 21:42:26;;;;;;;3.20;2.38;;;;;;;-0.64;82.66;102031.28;10300772;28;20438;-80
2022/12/03 21:47:37;;;;;;;2.53;2.20;;;;;;;-0.64;82.33;102032.19;10299274;28;20046;-80
2022/12/03 21:52:39;;;;;;;7.10;3.83;;;;;;;-0.59;82.16;102035.13;10299390;28;20054;-81
2022/12/03 21:57:41;;;;;;;8.48;3.35;;;;;;;-0.69;82.46;102033.50;10299255;28;20050;-80
2022/12/03 22:02:42;;;;;;;4.13;3.13;;;;;;;-0.68;81.94;102039.53;10296166;28;20064;-79
2022/12/03 22:07:44;;;;;;;3.45;2.40;;;;;;;-0.73;82.21;102031.44;10288497;28;20749;-79
2022/12/03 22:12:45;;;;;;;3.65;2.88;;;;;;;-0.76;82.02;102031.19;10288644;28;20043;-82
2022/12/03 22:17:47;;;;;;;4.70;1.95;;;;;;;-0.85;82.35;102031.31;10273597;28;20050;-79
2022/12/03 22:22:48;;;;;;;4.65;3.38;;;;;;;-0.86;81.90;102031.19;10276923;28;20475;-78
2022/12/03 22:27:50;;;;;;;4.80;2.72;;;;;;;-0.87;81.80;102024.22;10291228;28;20043;-81
2022/12/03 22:32:51;;;;;;;2.38;1.77;;;;;;;-0.92;81.92;102029.88;10284787;28;20065;-79
2022/12/03 22:37:53;;;;;;;1.33;1.23;;;;;;;-0.90;81.93;102014.59;10284165;28;20105;-80
2022/12/03 22:42:54;;;;;;;6.28;3.33;;;;;;;-0.90;81.84;102017.19;10282742;28;20055;-79
2022/12/03 22:47:56;;;;;;;2.28;2.00;;;;;;;-0.94;81.67;102020.25;10283321;28;20054;-79
2022/12/03 22:52:57;;;;;;;3.70;2.53;;;;;;;-1.00;81.90;102012.94;10274100;28;20133;-79
2022/12/03 22:57:59;;;;;;;1.58;1.40;;;;;;;-1.05;81.88;102008.16;10282073;28;20039;-79
2022/12/03 23:03:01;;;;;;;2.22;1.35;;;;;;;-1.04;82.20;102004.84;10265987;28;20097;-79
2022/12/03 23:08:09;;;;;;;3.47;2.75;;;;;;;-1.01;82.54;102013.69;10282933;28;20050;-80
2022/12/03 23:13:11;;;;;;;3.15;2.78;;;;;;;-1.07;82.36;102001.25;10266147;28;20055;-79
2022/12/03 23:18:12;;;;;;;2.78;2.08;;;;;;;-1.12;82.62;101999.06;10284569;28;20050;-79
2022/12/03 23:23:14;;;;;;;5.45;3.35;;;;;;;-1.11;82.54;102001.75;10262382;28;20464;-80